Sakhon Nakhon, Thailand
Current Conditions -  °F | °C
As of 12:00 PM on Friday 28 Nov 2014 (Local Time) from VTUD Reporting Station
Clear Clear  
Wind Chill: 88°   Ceiling: Unl
Heat Index: 93°   Visibility: 6mi
Dew Point: 70°   Wind: 6mph
Humidity: 55%   Direction: 350°N
Pressure: 29.85"   Gusts: NA
Location:  17.17°N, 104.15°E
Report Text: VTUD 280500Z 35005KT 280V060 9999 31/21 Q1011 A2987INFO G RWY30
Loading
Personal Weather Stations






























Interactive Weather Map New forecast layout! Learn more

10-Day Weather Forecast

Advertisements
Track Severe Weather on mobile